Azure — ZCEE2 — position and weather

sailwx.info

Track history (hours):
 
Tides and Currents Weather Stations Pressure Air Temp Water Temp Dewpoint Dewpoint Depression Visibility Wind Speed Wind Dir Waves Ship Positions

Azure

Last reported at 2019-Jul-20 00:22 UTC. Time now 2019-Jul-20 01:07 UTC.
Position N 50°36' E 000°27'.

Length 289 m; draft 8.6 m.

Type: Passenger vessel. MMSI: 310610000.

Date/timePositionNaut miles runAvg speedWind from/ knotsBaromVisibWave heightAir tempDewpointWater temp
2019-Jul-20 00:22N 50°36' E 000°27'918.2
2019-Jul-19 23:52N 50°40' E 000°40'718.3
2019-Jul-19 23:30N 50°44' E 000°49'1018.5
2019-Jul-19 22:58N 50°49' E 001°02'919.3
2019-Jul-19 22:30N 50°54' E 001°14'1020.3
2019-Jul-19 22:00N 51°01' E 001°25'1121.9
2019-Jul-19 21:31N 51°09' E 001°37'1121.5
2019-Jul-19 21:01N 51°17' E 001°48'1121.2
2019-Jul-19 20:31N 51°27' E 001°54'1020.6
2019-Jul-19 20:00N 51°37' E 002°00'1019.8
2019-Jul-19 19:30N 51°46' E 002°07'919.0
2019-Jul-19 19:01N 51°55' E 002°12'918.6
2019-Jul-19 18:31N 52°04' E 002°14'918.4
2019-Jul-19 18:01N 52°13' E 002°16'918.0
2019-Jul-19 17:31N 52°21' E 002°21'917.8
2019-Jul-19 17:01N 52°30' E 002°24'917.5
2019-Jul-19 16:31N 52°39' E 002°27'917.4
2019-Jul-19 16:01N 52°47' E 002°30'917.7
2019-Jul-19 15:31N 52°56' E 002°33'1217.7
2019-Jul-19 14:50N 53°07' E 002°39'617.6
2019-Jul-19 14:31N 53°13' E 002°42'917.4
2019-Jul-19 14:00N 53°21' E 002°48'1019.5
2019-Jul-19 13:31N 53°30' E 002°54'612.2
2019-Jul-19 13:00N 53°36' E 002°54'1528.0 190 / 171010.810.8 17.514.014.0
2019-Jul-19 12:26N 53°50' E 003°07'1020.1
2019-Jul-19 11:57N 53°59' E 003°11'920.2
2019-Jul-19 11:29N 54°08' E 003°15'1020.3
2019-Jul-19 11:00N 54°18' E 003°17'19720.2
2019-Jul-19 01:16N 57°34' E 003°49'1020.2
2019-Jul-19 00:46N 57°44' E 003°50'520.4
2019-Jul-19 00:29N 57°49' E 003°51'1020.4
2019-Jul-19 00:00N 57°59' E 003°52'1020.5
2019-Jul-18 23:30N 58°09' E 003°54'1020.5
2019-Jul-18 23:00N 58°19' E 003°55'1020.3
2019-Jul-18 22:30N 58°29' E 003°57'1020.1
2019-Jul-18 21:59N 58°40' E 003°59'1020.0
2019-Jul-18 21:30N 58°50' E 003°59'1019.9
2019-Jul-18 21:00N 58°60' E 003°59'1019.3
2019-Jul-18 20:30N 59°09' E 003°58'1019.0
2019-Jul-18 20:00N 59°19' E 003°60'918.9
2019-Jul-18 19:29N 59°28' E 003°59'918.4
2019-Jul-18 19:00N 59°37' E 003°59'918.4
2019-Jul-18 18:30N 59°47' E 003°59'918.5
2019-Jul-18 18:00N 59°56' E 003°59'918.5
2019-Jul-18 17:30N 60°05' E 003°59'918.0
2019-Jul-18 17:00N 60°14' E 004°02'5363.7
2019-Jul-18 17:00N 60°18' E 004°06'5 9.7 150 / 441002.510.8 14.012.213.0
2019-Jul-18 16:30N 60°23' E 004°06'918.6
2019-Jul-18 15:59N 60°31' E 004°17'1019.1
2019-Jul-18 15:29N 60°38' E 004°28'918.1
2019-Jul-18 15:00N 60°45' E 004°41'714.1
2019-Jul-18 14:30N 60°40' E 004°52'1121.1
2019-Jul-18 14:00N 60°30' E 004°58'816.3
2019-Jul-18 13:30N 60°24' E 005°09'5 9.2
2019-Jul-18 13:01N 60°24' E 005°18'1 1.1
2019-Jul-18 12:30N 60°24' E 005°19'0 0.0
2019-Jul-18 12:00N 60°24' E 005°19'0 0.0
2019-Jul-18 11:30N 60°24' E 005°19'0 0.0
2019-Jul-18 11:00N 60°24' E 005°19'0 0.0
2019-Jul-18 10:27N 60°24' E 005°19'0 0.0
2019-Jul-18 10:00N 60°24' E 005°19'0 0.0
2019-Jul-18 09:27N 60°24' E 005°19'0 0.0
2019-Jul-18 09:00N 60°24' E 005°19'0 0.0
2019-Jul-18 08:29N 60°24' E 005°19'0 0.0
2019-Jul-18 07:53N 60°24' E 005°19'0 0.0
2019-Jul-18 07:30N 60°24' E 005°19'0 0.0
2019-Jul-18 06:57N 60°24' E 005°19'0 0.0
2019-Jul-18 06:28N 60°24' E 005°19'0 0.0
2019-Jul-18 05:59N 60°24' E 005°19'0 0.0
2019-Jul-18 05:30N 60°24' E 005°19'0 0.0
2019-Jul-18 04:57N 60°24' E 005°19'0 0.0
2019-Jul-18 04:28N 60°24' E 005°19'0 0.3
2019-Jul-18 04:00N 60°24' E 005°19'3 5.0
2019-Jul-18 03:28N 60°24' E 005°14'510.5
2019-Jul-18 03:01N 60°25' E 005°04'713.0
2019-Jul-18 02:30N 60°31' E 004°58'714.8
2019-Jul-18 02:00N 60°38' E 004°53'714.5
2019-Jul-18 01:30N 60°44' E 004°45'815.1
2019-Jul-18 01:00N 60°47' E 004°30'714.7
2019-Jul-18 00:30N 60°53' E 004°21'815.2
2019-Jul-18 00:00N 60°59' E 004°14'714.3
2019-Jul-17 23:30N 61°06' E 004°07'713.3
2019-Jul-17 22:59N 61°12' E 004°03'713.6
2019-Jul-17 22:30N 61°19' E 004°03'713.8
2019-Jul-17 22:00N 61°26' E 004°03'713.9
2019-Jul-17 21:30N 61°33' E 004°02'713.8
2019-Jul-17 21:00N 61°40' E 004°02'714.2
2019-Jul-17 20:30N 61°47' E 004°02'714.1
2019-Jul-17 20:00N 61°54' E 004°01'713.6
2019-Jul-17 19:30N 62°00' E 004°05'714.3
2019-Jul-17 18:59N 62°06' E 004°16'714.5
2019-Jul-17 18:29N 62°11' E 004°27'714.8
2019-Jul-17 18:00N 62°15' E 004°39'714.8
2019-Jul-17 17:30N 62°19' E 004°53'816.1
2019-Jul-17 17:00N 62°23' E 005°08'82952.5
2019-Jul-17 17:00N 62°18' E 004°54'1734.4 100 / 41010.610.8 14.510.713.0
2019-Jul-17 16:30N 62°27' E 005°25'917.2
2019-Jul-17 16:00N 62°30' E 005°42'816.9
2019-Jul-17 15:30N 62°27' E 005°58'611.6
2019-Jul-17 15:00N 62°28' E 006°10'0 0.8
2019-Jul-17 14:30N 62°28' E 006°09'0 0.0
2019-Jul-17 14:00N 62°28' E 006°09'0 0.0
2019-Jul-17 13:30N 62°28' E 006°09'0 0.0
2019-Jul-17 13:00N 62°28' E 006°09'0 0.0
2019-Jul-17 12:30N 62°28' E 006°09'0 0.0
2019-Jul-17 12:00N 62°28' E 006°09'0 0.0
2019-Jul-17 11:30N 62°28' E 006°09'0 0.0
2019-Jul-17 11:00N 62°28' E 006°09'0 0.0
2019-Jul-17 10:30N 62°28' E 006°09'0 0.0
2019-Jul-17 10:00N 62°28' E 006°09'0 0.0
2019-Jul-17 09:30N 62°28' E 006°09'0 0.0
2019-Jul-17 09:00N 62°28' E 006°09'0 0.0
2019-Jul-17 08:30N 62°28' E 006°09'0 0.0
2019-Jul-17 08:00N 62°28' E 006°09'0 0.0
2019-Jul-17 07:30N 62°28' E 006°09'0 0.0
2019-Jul-17 07:00N 62°28' E 006°09'0 0.0
2019-Jul-17 06:30N 62°28' E 006°09'0 0.0
2019-Jul-17 06:00N 62°28' E 006°09'0 0.0
2019-Jul-17 05:30N 62°28' E 006°09'1 1.2
2019-Jul-17 05:00N 62°28' E 006°11'3 5.2
2019-Jul-17 04:30N 62°27' E 006°05'712.9
2019-Jul-17 04:00N 62°28' E 005°52'612.4
2019-Jul-17 03:29N 62°31' E 005°39'612.0
2019-Jul-17 03:00N 62°31' E 005°27'611.9
2019-Jul-17 02:30N 62°31' E 005°14'612.1
2019-Jul-17 02:01N 62°31' E 005°01'611.5
2019-Jul-17 01:29N 62°31' E 004°48'511.0
2019-Jul-17 01:00N 62°31' E 004°37'611.0
2019-Jul-17 00:30N 62°31' E 004°25'611.1
2019-Jul-17 00:00N 62°31' E 004°13'510.2
2019-Jul-16 23:30N 62°27' E 004°08'611.5
2019-Jul-16 23:00N 62°21' E 004°08'611.5
2019-Jul-16 22:30N 62°15' E 004°08'610.9
2019-Jul-16 21:59N 62°10' E 004°14'612.4
2019-Jul-16 21:30N 62°07' E 004°25'713.7
2019-Jul-16 21:00N 62°03' E 004°37'714.2
2019-Jul-16 20:30N 61°60' E 004°51'714.6
2019-Jul-16 20:00N 61°56' E 005°03'815.3
2019-Jul-16 19:30N 61°54' E 005°19'815.6
2019-Jul-16 19:00N 61°55' E 005°35'815.0
2019-Jul-16 18:29N 61°51' E 005°50'714.9
2019-Jul-16 18:00N 61°51' E 006°05'713.2
2019-Jul-16 17:30N 61°51' E 006°19'612.6
2019-Jul-16 17:00N 61°50' E 006°32'1 0.1
2019-Jul-16 05:08N 61°50' E 006°31'217.9
2019-Jul-16 04:59N 61°49' E 006°26'817.3
2019-Jul-16 04:30N 61°51' E 006°08'916.9
2019-Jul-16 04:00N 61°51' E 005°50'816.8
2019-Jul-16 03:30N 61°55' E 005°34'917.3
2019-Jul-16 03:00N 61°54' E 005°15'815.4
2019-Jul-16 02:30N 61°56' E 005°00'814.7
2019-Jul-16 01:59N 61°58' E 004°44'714.7
2019-Jul-16 01:30N 61°53' E 004°33'816.3
2019-Jul-16 01:00N 61°46' E 004°26'917.5
2019-Jul-16 00:30N 61°37' E 004°19'917.6
2019-Jul-16 00:00N 61°29' E 004°18'917.8
2019-Jul-15 23:30N 61°20' E 004°16'917.6
2019-Jul-15 23:00N 61°11' E 004°14'917.7
2019-Jul-15 22:30N 61°02' E 004°12'917.8
2019-Jul-15 22:00N 60°53' E 004°10'917.4
2019-Jul-15 21:30N 60°45' E 004°10'917.1
2019-Jul-15 21:00N 60°36' E 004°10'817.3
2019-Jul-15 20:30N 60°28' E 004°10'918.1
2019-Jul-15 20:00N 60°18' E 004°10'1019.7
2019-Jul-15 19:30N 60°09' E 004°14'1020.3
2019-Jul-15 19:00N 59°59' E 004°22'1020.2
2019-Jul-15 18:30N 59°50' E 004°30'1020.2
2019-Jul-15 18:00N 59°41' E 004°37'1020.3
2019-Jul-15 17:30N 59°32' E 004°46'1020.6
2019-Jul-15 17:00N 59°22' E 004°55'4355.1
2019-Jul-15 17:00N 59°24' E 004°48'1327.5 330 / 211014.910.8 12.011.011.0
2019-Jul-15 16:30N 59°13' E 005°02'918.0
2019-Jul-15 16:00N 59°07' E 005°15'918.9
2019-Jul-15 15:30N 59°05' E 005°33'714.8
2019-Jul-15 15:00N 58°59' E 005°43'1 2.0
2019-Jul-15 14:29N 58°58' E 005°44'0 0.0
2019-Jul-15 13:59N 58°58' E 005°44'0 0.0
2019-Jul-15 13:29N 58°58' E 005°44'0 0.0
2019-Jul-15 12:59N 58°58' E 005°44'0 0.0
2019-Jul-15 12:29N 58°58' E 005°44'0 0.0
2019-Jul-15 11:59N 58°58' E 005°44'0 0.0
2019-Jul-15 11:29N 58°58' E 005°44'0 0.0
2019-Jul-15 10:59N 58°58' E 005°44'0 0.0
2019-Jul-15 10:29N 58°58' E 005°44'0 0.0
2019-Jul-15 09:59N 58°58' E 005°44'0 0.0
2019-Jul-15 09:29N 58°58' E 005°44'0 0.0
2019-Jul-15 08:59N 58°58' E 005°44'0 0.0
2019-Jul-15 08:29N 58°58' E 005°44'0 0.0
2019-Jul-15 07:56N 58°58' E 005°44'0 0.0
2019-Jul-15 07:29N 58°58' E 005°44'0 0.0
2019-Jul-15 06:59N 58°58' E 005°44'0 0.0
2019-Jul-15 06:26N 58°58' E 005°44'0 0.0
2019-Jul-15 05:59N 58°58' E 005°44'0 0.0
2019-Jul-15 05:30N 58°58' E 005°44'0 0.5
2019-Jul-15 05:00N 58°59' E 005°44'4 7.8
2019-Jul-15 04:31N 59°01' E 005°38'3 6.9
2019-Jul-15 04:01N 58°59' E 005°33'815.7
2019-Jul-15 03:30N 58°52' E 005°31'612.3
2019-Jul-15 03:00N 58°47' E 005°24'714.9
2019-Jul-15 02:30N 58°40' E 005°19'815.7
2019-Jul-15 02:00N 58°32' E 005°15'816.5
2019-Jul-15 01:30N 58°24' E 005°09'917.9
2019-Jul-15 01:00N 58°15' E 005°06'918.4
2019-Jul-15 00:30N 58°06' E 005°03'918.4
2019-Jul-15 00:00N 57°57' E 004°60'918.2
2019-Jul-14 23:30N 57°48' E 004°57'918.1
2019-Jul-14 23:00N 57°39' E 004°54'917.9
2019-Jul-14 22:30N 57°30' E 004°52'817.1
2019-Jul-14 22:00N 57°22' E 004°50'916.9
2019-Jul-14 21:29N 57°14' E 004°46'918.4
2019-Jul-14 21:00N 57°05' E 004°43'1018.5
2019-Jul-14 20:29N 56°56' E 004°41'1018.9
2019-Jul-14 19:59N 56°46' E 004°38'919.1
2019-Jul-14 19:30N 56°37' E 004°36'1019.3
2019-Jul-14 19:00N 56°27' E 004°32'1019.5
2019-Jul-14 18:30N 56°18' E 004°29'1019.6
2019-Jul-14 18:00N 56°08' E 004°26'1019.6
2019-Jul-14 17:30N 55°59' E 004°24'1019.5
2019-Jul-14 16:59N 55°49' E 004°20'1019.6
2019-Jul-14 16:29N 55°39' E 004°14'919.6
2019-Jul-14 16:00N 55°31' E 004°08'1019.5
2019-Jul-14 15:29N 55°21' E 004°03'919.6
2019-Jul-14 15:01N 55°12' E 003°58'1019.6
2019-Jul-14 14:30N 55°02' E 003°54'1019.6
2019-Jul-14 14:00N 54°53' E 003°50'12889.3
2019-Jul-14 14:00N 54°42' E 003°42'2713.8 340 / 201020.610.8 14.0 9.115.0
2019-Jul-14 12:01N 54°15' E 003°35'319.5
2019-Jul-14 11:52N 54°12' E 003°33'1419.4
2019-Jul-14 11:07N 53°58' E 003°27'6718.9
2019-Jul-14 07:35N 52°59' E 002°36'218.7
2019-Jul-14 07:30N 52°58' E 002°35'918.4
2019-Jul-14 07:00N 52°49' E 002°31'918.1
2019-Jul-14 06:30N 52°40' E 002°28'918.1
2019-Jul-14 06:00N 52°31' E 002°25'14841.7
2019-Jul-14 06:00N 52°18' E 002°18'510.0 350 / 181021.010.8 16.012.420.0
2019-Jul-14 05:30N 52°22' E 002°22'918.7
2019-Jul-14 05:01N 52°13' E 002°19'919.0
2019-Jul-14 04:30N 52°04' E 002°16'1019.5
2019-Jul-14 04:00N 51°54' E 002°12'1020.0
2019-Jul-14 03:30N 51°45' E 002°06'1019.9
2019-Jul-14 03:01N 51°36' E 001°59'1020.1
2019-Jul-14 02:31N 51°29' E 001°48'1020.2
2019-Jul-14 02:00N 51°19' E 001°43'186.0
2019-Jul-14 02:00N 51°18' E 001°42'816.3 010 / 101021.710.8 15.511.818.0
2019-Jul-14 01:30N 51°10' E 001°38'815.8
2019-Jul-14 01:00N 51°03' E 001°36'1020.2
2019-Jul-14 00:31N 50°55' E 001°25'6317.9
2019-Jul-13 21:01N 50°22' E 000°01'020.1
2019-Jul-13 21:00N 50°22' E 000°01'1020.2
2019-Jul-13 20:29N 50°24' W 000°15'1020.3
2019-Jul-13 20:00N 50°30' W 000°27'1020.0
2019-Jul-13 19:30N 50°35' W 000°41'1019.7
2019-Jul-13 19:00N 50°39' W 000°54'713.2
2019-Jul-13 18:31N 50°44' W 001°02'918.8
2019-Jul-13 18:01N 50°46' W 001°17'5 9.5
2019-Jul-13 17:30N 50°51' W 001°20'5 9.0
2019-Jul-13 17:00N 50°54' W 001°25'1 1.3
2019-Jul-13 16:29N 50°54' W 001°26'0 0.0
2019-Jul-13 15:56N 50°54' W 001°26'0 0.0
2019-Jul-13 15:29N 50°54' W 001°26'0 0.0
2019-Jul-13 14:53N 50°54' W 001°26'0 0.0
2019-Jul-13 14:23N 50°54' W 001°26'0 0.0
2019-Jul-13 13:59N 50°54' W 001°26'0 0.0
2019-Jul-13 13:29N 50°54' W 001°26'0 0.0
2019-Jul-13 12:35N 50°54' W 001°26'0 0.0
2019-Jul-13 12:29N 50°54' W 001°26'0 0.0
2019-Jul-13 11:56N 50°54' W 001°26'0 0.0
2019-Jul-13 11:26N 50°54' W 001°26'0 0.0
2019-Jul-13 10:59N 50°54' W 001°26'0 0.0
2019-Jul-13 10:29N 50°54' W 001°26'0 0.0
2019-Jul-13 09:56N 50°54' W 001°26'0 0.0
2019-Jul-13 09:26N 50°54' W 001°26'0 0.0
2019-Jul-13 08:59N 50°54' W 001°26'0 0.0
2019-Jul-13 08:29N 50°54' W 001°26'0 0.0
2019-Jul-13 07:59N 50°54' W 001°26'0 0.0
2019-Jul-13 07:29N 50°54' W 001°26'0 0.0
2019-Jul-13 06:59N 50°54' W 001°26'0 0.0
2019-Jul-13 06:29N 50°54' W 001°26'0 0.0
2019-Jul-13 05:53N 50°54' W 001°26'0 0.0
2019-Jul-13 05:28N 50°54' W 001°26'0 0.0
2019-Jul-13 05:00N 50°54' W 001°26'0 0.5
2019-Jul-13 04:30N 50°54' W 001°26'3 5.4
2019-Jul-13 04:01N 50°52' W 001°23'510.3
2019-Jul-13 03:30N 50°49' W 001°18'5 9.2
2019-Jul-13 03:00N 50°46' W 001°12'815.5
2019-Jul-13 02:30N 50°43' W 001°00'510.0
2019-Jul-13 02:00N 50°38' W 000°60'510.6
2019-Jul-13 01:30N 50°33' W 001°02'918.5
2019-Jul-13 01:00N 50°29' W 001°15'3118.0
2019-Jul-12 23:16N 50°18' W 002°01'817.4
2019-Jul-12 22:48N 50°18' W 002°14'617.2
2019-Jul-12 22:28N 50°16' W 002°22'817.1
2019-Jul-12 22:00N 50°15' W 002°35'917.8
2019-Jul-12 21:30N 50°13' W 002°48'917.9
2019-Jul-12 21:00N 50°10' W 003°01'918.1
2019-Jul-12 20:30N 50°03' W 003°11'918.4
2019-Jul-12 20:00N 49°57' W 003°21'918.6
2019-Jul-12 19:30N 49°50' W 003°31'917.8
2019-Jul-12 19:00N 49°43' W 003°39'816.5
2019-Jul-12 18:30N 49°37' W 003°48'917.1
2019-Jul-12 18:00N 49°31' W 003°57'4017.2
2019-Jul-12 15:39N 49°02' W 004°40'317.4
2019-Jul-12 15:29N 48°60' W 004°43'919.8
2019-Jul-12 15:00N 48°53' W 004°53'1019.8
2019-Jul-12 14:30N 48°45' W 005°02'1020.3
2019-Jul-12 14:00N 48°38' W 005°14'1020.4
2019-Jul-12 13:30N 48°30' W 005°24'1020.2
2019-Jul-12 13:00N 48°22' W 005°32'1020.4
2019-Jul-12 12:30N 48°13' W 005°40'1020.0
2019-Jul-12 12:00N 48°04' W 005°47'1020.2
2019-Jul-12 11:30N 47°55' W 005°55'1020.4
2019-Jul-12 11:00N 47°47' W 006°02'1020.4
2019-Jul-12 10:30N 47°38' W 006°09'1420.6
2019-Jul-12 09:50N 47°26' W 006°20'720.6
2019-Jul-12 09:30N 47°20' W 006°24'1019.5
2019-Jul-12 09:00N 47°11' W 006°32'1019.6
2019-Jul-12 08:30N 47°03' W 006°39'1019.0
2019-Jul-12 08:00N 46°55' W 006°46'1619.2
2019-Jul-12 07:10N 46°41' W 006°58'19519.9
2019-Jul-11 21:21N 43°51' W 009°14'919.7
2019-Jul-11 20:55N 43°44' W 009°20'2819.7
2019-Jul-11 19:29N 43°20' W 009°40'1019.6
2019-Jul-11 18:58N 43°10' W 009°46'1219.7
2019-Jul-11 18:21N 42°58' W 009°46'1219.4
2019-Jul-11 17:45N 42°46' W 009°47'10017.5
2019-Jul-11 12:00N 41°06' W 009°48'3625.2 010 / 251015.510.8 19.515.319.0
2019-Jul-11 10:33N 40°30' W 009°49'119.2
2019-Jul-11 10:30N 40°29' W 009°49'1019.1
2019-Jul-11 10:00N 40°19' W 009°51'1019.4
2019-Jul-11 09:30N 40°10' W 009°52'1019.2
2019-Jul-11 09:00N 40°00' W 009°52'1319.5
2019-Jul-11 08:21N 39°48' W 009°50'719.5
2019-Jul-11 08:00N 39°41' W 009°50'1119.4
2019-Jul-11 07:25N 39°29' W 009°51'819.3
2019-Jul-11 07:00N 39°22' W 009°50'1019.4
2019-Jul-11 06:30N 39°12' W 009°50'1019.3
2019-Jul-11 06:01N 39°02' W 009°50'3172.3
2019-Jul-11 06:00N 39°00' W 009°48'816.0 010 / 201012.510.8 19.017.419.0
2019-Jul-11 05:30N 38°52' W 009°51'1019.3
2019-Jul-11 05:01N 38°43' W 009°50'1019.3
2019-Jul-11 04:31N 38°33' W 009°48'918.8
2019-Jul-11 04:01N 38°24' W 009°45'1019.2
2019-Jul-11 03:31N 38°15' W 009°42'1019.3
2019-Jul-11 03:00N 38°06' W 009°39'1019.7
2019-Jul-11 02:30N 37°56' W 009°35'1019.7
2019-Jul-11 02:00N 37°46' W 009°34'1019.9
2019-Jul-11 01:30N 37°37' W 009°31'1019.7
2019-Jul-11 01:00N 37°27' W 009°28'1019.8
2019-Jul-11 00:30N 37°17' W 009°25'1019.5
2019-Jul-11 00:00N 37°08' W 009°22'1019.3
2019-Jul-10 23:29N 36°58' W 009°19'918.9
2019-Jul-10 23:00N 36°50' W 009°14'919.1
2019-Jul-10 22:31N 36°44' W 009°05'1019.7
2019-Jul-10 22:00N 36°42' W 008°53'1019.5
2019-Jul-10 21:30N 36°39' W 008°41'1019.7
2019-Jul-10 20:59N 36°36' W 008°29'919.3
2019-Jul-10 20:30N 36°33' W 008°18'1219.4
2019-Jul-10 19:52N 36°29' W 008°03'173 9.7
2019-Jul-10 02:00N 36°12' W 004°30'   270 / 231011.810.8 20.016.720.9
Track history (hours):
 
Tides and Currents Weather Stations Pressure Air Temp Water Temp Dewpoint Dewpoint Depression Visibility Wind Speed Wind Dir Waves Ship Positions

Azure

Last reported at 2019-Jul-20 00:22 UTC. Time now 2019-Jul-20 01:07 UTC.
Position N 50°36' E 000°27'.

Length 289 m; draft 8.6 m.

Type: Passenger vessel. MMSI: 310610000.

Date/timePositionNaut miles runAvg speedWind from/ knotsBaromVisibWave heightAir tempDewpointWater temp
2019-Jul-20 00:22N 50°36' E 000°27'918.2
2019-Jul-19 23:52N 50°40' E 000°40'718.3
2019-Jul-19 23:30N 50°44' E 000°49'1018.5
2019-Jul-19 22:58N 50°49' E 001°02'919.3
2019-Jul-19 22:30N 50°54' E 001°14'1020.3
2019-Jul-19 22:00N 51°01' E 001°25'1121.9
2019-Jul-19 21:31N 51°09' E 001°37'1121.5
2019-Jul-19 21:01N 51°17' E 001°48'1121.2
2019-Jul-19 20:31N 51°27' E 001°54'1020.6
2019-Jul-19 20:00N 51°37' E 002°00'1019.8
2019-Jul-19 19:30N 51°46' E 002°07'919.0
2019-Jul-19 19:01N 51°55' E 002°12'918.6
2019-Jul-19 18:31N 52°04' E 002°14'918.4
2019-Jul-19 18:01N 52°13' E 002°16'918.0
2019-Jul-19 17:31N 52°21' E 002°21'917.8
2019-Jul-19 17:01N 52°30' E 002°24'917.5
2019-Jul-19 16:31N 52°39' E 002°27'917.4
2019-Jul-19 16:01N 52°47' E 002°30'917.7
2019-Jul-19 15:31N 52°56' E 002°33'1217.7
2019-Jul-19 14:50N 53°07' E 002°39'617.6
2019-Jul-19 14:31N 53°13' E 002°42'917.4
2019-Jul-19 14:00N 53°21' E 002°48'1019.5
2019-Jul-19 13:31N 53°30' E 002°54'612.2
2019-Jul-19 13:00N 53°36' E 002°54'1528.0 190 / 171010.810.8 17.514.014.0
2019-Jul-19 12:26N 53°50' E 003°07'1020.1
2019-Jul-19 11:57N 53°59' E 003°11'920.2
2019-Jul-19 11:29N 54°08' E 003°15'1020.3
2019-Jul-19 11:00N 54°18' E 003°17'19720.2
2019-Jul-19 01:16N 57°34' E 003°49'1020.2
2019-Jul-19 00:46N 57°44' E 003°50'520.4
2019-Jul-19 00:29N 57°49' E 003°51'1020.4
2019-Jul-19 00:00N 57°59' E 003°52'1020.5
2019-Jul-18 23:30N 58°09' E 003°54'1020.5
2019-Jul-18 23:00N 58°19' E 003°55'1020.3
2019-Jul-18 22:30N 58°29' E 003°57'1020.1
2019-Jul-18 21:59N 58°40' E 003°59'1020.0
2019-Jul-18 21:30N 58°50' E 003°59'1019.9
2019-Jul-18 21:00N 58°60' E 003°59'1019.3
2019-Jul-18 20:30N 59°09' E 003°58'1019.0
2019-Jul-18 20:00N 59°19' E 003°60'918.9
2019-Jul-18 19:29N 59°28' E 003°59'918.4
2019-Jul-18 19:00N 59°37' E 003°59'918.4
2019-Jul-18 18:30N 59°47' E 003°59'918.5
2019-Jul-18 18:00N 59°56' E 003°59'918.5
2019-Jul-18 17:30N 60°05' E 003°59'918.0
2019-Jul-18 17:00N 60°14' E 004°02'5363.7
2019-Jul-18 17:00N 60°18' E 004°06'5 9.7 150 / 441002.510.8 14.012.213.0
2019-Jul-18 16:30N 60°23' E 004°06'918.6
2019-Jul-18 15:59N 60°31' E 004°17'1019.1
2019-Jul-18 15:29N 60°38' E 004°28'918.1
2019-Jul-18 15:00N 60°45' E 004°41'714.1
2019-Jul-18 14:30N 60°40' E 004°52'1121.1
2019-Jul-18 14:00N 60°30' E 004°58'816.3
2019-Jul-18 13:30N 60°24' E 005°09'5 9.2
2019-Jul-18 13:01N 60°24' E 005°18'1 1.1
2019-Jul-18 12:30N 60°24' E 005°19'0 0.0
2019-Jul-18 12:00N 60°24' E 005°19'0 0.0
2019-Jul-18 11:30N 60°24' E 005°19'0 0.0
2019-Jul-18 11:00N 60°24' E 005°19'0 0.0
2019-Jul-18 10:27N 60°24' E 005°19'0 0.0
2019-Jul-18 10:00N 60°24' E 005°19'0 0.0
2019-Jul-18 09:27N 60°24' E 005°19'0 0.0
2019-Jul-18 09:00N 60°24' E 005°19'0 0.0
2019-Jul-18 08:29N 60°24' E 005°19'0 0.0
2019-Jul-18 07:53N 60°24' E 005°19'0 0.0
2019-Jul-18 07:30N 60°24' E 005°19'0 0.0
2019-Jul-18 06:57N 60°24' E 005°19'0 0.0
2019-Jul-18 06:28N 60°24' E 005°19'0 0.0
2019-Jul-18 05:59N 60°24' E 005°19'0 0.0
2019-Jul-18 05:30N 60°24' E 005°19'0 0.0
2019-Jul-18 04:57N 60°24' E 005°19'0 0.0
2019-Jul-18 04:28N 60°24' E 005°19'0 0.3
2019-Jul-18 04:00N 60°24' E 005°19'3 5.0
2019-Jul-18 03:28N 60°24' E 005°14'510.5
2019-Jul-18 03:01N 60°25' E 005°04'713.0
2019-Jul-18 02:30N 60°31' E 004°58'714.8
2019-Jul-18 02:00N 60°38' E 004°53'714.5
2019-Jul-18 01:30N 60°44' E 004°45'815.1
2019-Jul-18 01:00N 60°47' E 004°30'714.7
2019-Jul-18 00:30N 60°53' E 004°21'815.2
2019-Jul-18 00:00N 60°59' E 004°14'714.3
2019-Jul-17 23:30N 61°06' E 004°07'713.3
2019-Jul-17 22:59N 61°12' E 004°03'713.6
2019-Jul-17 22:30N 61°19' E 004°03'713.8
2019-Jul-17 22:00N 61°26' E 004°03'713.9
2019-Jul-17 21:30N 61°33' E 004°02'713.8
2019-Jul-17 21:00N 61°40' E 004°02'714.2
2019-Jul-17 20:30N 61°47' E 004°02'714.1
2019-Jul-17 20:00N 61°54' E 004°01'713.6
2019-Jul-17 19:30N 62°00' E 004°05'714.3
2019-Jul-17 18:59N 62°06' E 004°16'714.5
2019-Jul-17 18:29N 62°11' E 004°27'714.8
2019-Jul-17 18:00N 62°15' E 004°39'714.8
2019-Jul-17 17:30N 62°19' E 004°53'816.1
2019-Jul-17 17:00N 62°23' E 005°08'82952.5
2019-Jul-17 17:00N 62°18' E 004°54'1734.4 100 / 41010.610.8 14.510.713.0
2019-Jul-17 16:30N 62°27' E 005°25'917.2
2019-Jul-17 16:00N 62°30' E 005°42'816.9
2019-Jul-17 15:30N 62°27' E 005°58'611.6
2019-Jul-17 15:00N 62°28' E 006°10'0 0.8
2019-Jul-17 14:30N 62°28' E 006°09'0 0.0
2019-Jul-17 14:00N 62°28' E 006°09'0 0.0
2019-Jul-17 13:30N 62°28' E 006°09'0 0.0
2019-Jul-17 13:00N 62°28' E 006°09'0 0.0
2019-Jul-17 12:30N 62°28' E 006°09'0 0.0
2019-Jul-17 12:00N 62°28' E 006°09'0 0.0
2019-Jul-17 11:30N 62°28' E 006°09'0 0.0
2019-Jul-17 11:00N 62°28' E 006°09'0 0.0
2019-Jul-17 10:30N 62°28' E 006°09'0 0.0
2019-Jul-17 10:00N 62°28' E 006°09'0 0.0
2019-Jul-17 09:30N 62°28' E 006°09'0 0.0
2019-Jul-17 09:00N 62°28' E 006°09'0 0.0
2019-Jul-17 08:30N 62°28' E 006°09'0 0.0
2019-Jul-17 08:00N 62°28' E 006°09'0 0.0
2019-Jul-17 07:30N 62°28' E 006°09'0 0.0
2019-Jul-17 07:00N 62°28' E 006°09'0 0.0
2019-Jul-17 06:30N 62°28' E 006°09'0 0.0
2019-Jul-17 06:00N 62°28' E 006°09'0 0.0
2019-Jul-17 05:30N 62°28' E 006°09'1 1.2
2019-Jul-17 05:00N 62°28' E 006°11'3 5.2
2019-Jul-17 04:30N 62°27' E 006°05'712.9
2019-Jul-17 04:00N 62°28' E 005°52'612.4
2019-Jul-17 03:29N 62°31' E 005°39'612.0
2019-Jul-17 03:00N 62°31' E 005°27'611.9
2019-Jul-17 02:30N 62°31' E 005°14'612.1
2019-Jul-17 02:01N 62°31' E 005°01'611.5
2019-Jul-17 01:29N 62°31' E 004°48'511.0
2019-Jul-17 01:00N 62°31' E 004°37'611.0
2019-Jul-17 00:30N 62°31' E 004°25'611.1
2019-Jul-17 00:00N 62°31' E 004°13'510.2
2019-Jul-16 23:30N 62°27' E 004°08'611.5
2019-Jul-16 23:00N 62°21' E 004°08'611.5
2019-Jul-16 22:30N 62°15' E 004°08'610.9
2019-Jul-16 21:59N 62°10' E 004°14'612.4
2019-Jul-16 21:30N 62°07' E 004°25'713.7
2019-Jul-16 21:00N 62°03' E 004°37'714.2
2019-Jul-16 20:30N 61°60' E 004°51'714.6
2019-Jul-16 20:00N 61°56' E 005°03'815.3
2019-Jul-16 19:30N 61°54' E 005°19'815.6
2019-Jul-16 19:00N 61°55' E 005°35'815.0
2019-Jul-16 18:29N 61°51' E 005°50'714.9
2019-Jul-16 18:00N 61°51' E 006°05'713.2
2019-Jul-16 17:30N 61°51' E 006°19'612.6
2019-Jul-16 17:00N 61°50' E 006°32'1 0.1
2019-Jul-16 05:08N 61°50' E 006°31'217.9
2019-Jul-16 04:59N 61°49' E 006°26'817.3
2019-Jul-16 04:30N 61°51' E 006°08'916.9
2019-Jul-16 04:00N 61°51' E 005°50'816.8
2019-Jul-16 03:30N 61°55' E 005°34'917.3
2019-Jul-16 03:00N 61°54' E 005°15'815.4
2019-Jul-16 02:30N 61°56' E 005°00'814.7
2019-Jul-16 01:59N 61°58' E 004°44'714.7
2019-Jul-16 01:30N 61°53' E 004°33'816.3
2019-Jul-16 01:00N 61°46' E 004°26'917.5
2019-Jul-16 00:30N 61°37' E 004°19'917.6
2019-Jul-16 00:00N 61°29' E 004°18'917.8
2019-Jul-15 23:30N 61°20' E 004°16'917.6
2019-Jul-15 23:00N 61°11' E 004°14'917.7
2019-Jul-15 22:30N 61°02' E 004°12'917.8
2019-Jul-15 22:00N 60°53' E 004°10'917.4
2019-Jul-15 21:30N 60°45' E 004°10'917.1
2019-Jul-15 21:00N 60°36' E 004°10'817.3
2019-Jul-15 20:30N 60°28' E 004°10'918.1
2019-Jul-15 20:00N 60°18' E 004°10'1019.7
2019-Jul-15 19:30N 60°09' E 004°14'1020.3
2019-Jul-15 19:00N 59°59' E 004°22'1020.2
2019-Jul-15 18:30N 59°50' E 004°30'1020.2
2019-Jul-15 18:00N 59°41' E 004°37'1020.3
2019-Jul-15 17:30N 59°32' E 004°46'1020.6
2019-Jul-15 17:00N 59°22' E 004°55'4355.1
2019-Jul-15 17:00N 59°24' E 004°48'1327.5 330 / 211014.910.8 12.011.011.0
2019-Jul-15 16:30N 59°13' E 005°02'918.0
2019-Jul-15 16:00N 59°07' E 005°15'918.9
2019-Jul-15 15:30N 59°05' E 005°33'714.8
2019-Jul-15 15:00N 58°59' E 005°43'1 2.0
2019-Jul-15 14:29N 58°58' E 005°44'0 0.0
2019-Jul-15 13:59N 58°58' E 005°44'0 0.0
2019-Jul-15 13:29N 58°58' E 005°44'0 0.0
2019-Jul-15 12:59N 58°58' E 005°44'0 0.0
2019-Jul-15 12:29N 58°58' E 005°44'0 0.0
2019-Jul-15 11:59N 58°58' E 005°44'0 0.0
2019-Jul-15 11:29N 58°58' E 005°44'0 0.0
2019-Jul-15 10:59N 58°58' E 005°44'0 0.0
2019-Jul-15 10:29N 58°58' E 005°44'0 0.0
2019-Jul-15 09:59N 58°58' E 005°44'0 0.0
2019-Jul-15 09:29N 58°58' E 005°44'0 0.0
2019-Jul-15 08:59N 58°58' E 005°44'0 0.0
2019-Jul-15 08:29N 58°58' E 005°44'0 0.0
2019-Jul-15 07:56N 58°58' E 005°44'0 0.0
2019-Jul-15 07:29N 58°58' E 005°44'0 0.0
2019-Jul-15 06:59N 58°58' E 005°44'0 0.0
2019-Jul-15 06:26N 58°58' E 005°44'0 0.0
2019-Jul-15 05:59N 58°58' E 005°44'0 0.0
2019-Jul-15 05:30N 58°58' E 005°44'0 0.5
2019-Jul-15 05:00N 58°59' E 005°44'4 7.8
2019-Jul-15 04:31N 59°01' E 005°38'3 6.9
2019-Jul-15 04:01N 58°59' E 005°33'815.7
2019-Jul-15 03:30N 58°52' E 005°31'612.3
2019-Jul-15 03:00N 58°47' E 005°24'714.9
2019-Jul-15 02:30N 58°40' E 005°19'815.7
2019-Jul-15 02:00N 58°32' E 005°15'816.5
2019-Jul-15 01:30N 58°24' E 005°09'917.9
2019-Jul-15 01:00N 58°15' E 005°06'918.4
2019-Jul-15 00:30N 58°06' E 005°03'918.4
2019-Jul-15 00:00N 57°57' E 004°60'918.2
2019-Jul-14 23:30N 57°48' E 004°57'918.1
2019-Jul-14 23:00N 57°39' E 004°54'917.9
2019-Jul-14 22:30N 57°30' E 004°52'817.1
2019-Jul-14 22:00N 57°22' E 004°50'916.9
2019-Jul-14 21:29N 57°14' E 004°46'918.4
2019-Jul-14 21:00N 57°05' E 004°43'1018.5
2019-Jul-14 20:29N 56°56' E 004°41'1018.9
2019-Jul-14 19:59N 56°46' E 004°38'919.1
2019-Jul-14 19:30N 56°37' E 004°36'1019.3
2019-Jul-14 19:00N 56°27' E 004°32'1019.5
2019-Jul-14 18:30N 56°18' E 004°29'1019.6
2019-Jul-14 18:00N 56°08' E 004°26'1019.6
2019-Jul-14 17:30N 55°59' E 004°24'1019.5
2019-Jul-14 16:59N 55°49' E 004°20'1019.6
2019-Jul-14 16:29N 55°39' E 004°14'919.6
2019-Jul-14 16:00N 55°31' E 004°08'1019.5
2019-Jul-14 15:29N 55°21' E 004°03'919.6
2019-Jul-14 15:01N 55°12' E 003°58'1019.6
2019-Jul-14 14:30N 55°02' E 003°54'1019.6
2019-Jul-14 14:00N 54°53' E 003°50'12889.3
2019-Jul-14 14:00N 54°42' E 003°42'2713.8 340 / 201020.610.8 14.0 9.115.0
2019-Jul-14 12:01N 54°15' E 003°35'319.5
2019-Jul-14 11:52N 54°12' E 003°33'1419.4
2019-Jul-14 11:07N 53°58' E 003°27'6718.9
2019-Jul-14 07:35N 52°59' E 002°36'218.7
2019-Jul-14 07:30N 52°58' E 002°35'918.4
2019-Jul-14 07:00N 52°49' E 002°31'918.1
2019-Jul-14 06:30N 52°40' E 002°28'918.1
2019-Jul-14 06:00N 52°31' E 002°25'14841.7
2019-Jul-14 06:00N 52°18' E 002°18'510.0 350 / 181021.010.8 16.012.420.0
2019-Jul-14 05:30N 52°22' E 002°22'918.7
2019-Jul-14 05:01N 52°13' E 002°19'919.0
2019-Jul-14 04:30N 52°04' E 002°16'1019.5
2019-Jul-14 04:00N 51°54' E 002°12'1020.0
2019-Jul-14 03:30N 51°45' E 002°06'1019.9
2019-Jul-14 03:01N 51°36' E 001°59'1020.1
2019-Jul-14 02:31N 51°29' E 001°48'1020.2
2019-Jul-14 02:00N 51°19' E 001°43'186.0
2019-Jul-14 02:00N 51°18' E 001°42'816.3 010 / 101021.710.8 15.511.818.0
2019-Jul-14 01:30N 51°10' E 001°38'815.8
2019-Jul-14 01:00N 51°03' E 001°36'1020.2
2019-Jul-14 00:31N 50°55' E 001°25'6317.9
2019-Jul-13 21:01N 50°22' E 000°01'020.1
2019-Jul-13 21:00N 50°22' E 000°01'1020.2
2019-Jul-13 20:29N 50°24' W 000°15'1020.3
2019-Jul-13 20:00N 50°30' W 000°27'1020.0
2019-Jul-13 19:30N 50°35' W 000°41'1019.7
2019-Jul-13 19:00N 50°39' W 000°54'713.2
2019-Jul-13 18:31N 50°44' W 001°02'918.8
2019-Jul-13 18:01N 50°46' W 001°17'5 9.5
2019-Jul-13 17:30N 50°51' W 001°20'5 9.0
2019-Jul-13 17:00N 50°54' W 001°25'1 1.3
2019-Jul-13 16:29N 50°54' W 001°26'0 0.0
2019-Jul-13 15:56N 50°54' W 001°26'0 0.0
2019-Jul-13 15:29N 50°54' W 001°26'0 0.0
2019-Jul-13 14:53N 50°54' W 001°26'0 0.0
2019-Jul-13 14:23N 50°54' W 001°26'0 0.0
2019-Jul-13 13:59N 50°54' W 001°26'0 0.0
2019-Jul-13 13:29N 50°54' W 001°26'0 0.0
2019-Jul-13 12:35N 50°54' W 001°26'0 0.0
2019-Jul-13 12:29N 50°54' W 001°26'0 0.0
2019-Jul-13 11:56N 50°54' W 001°26'0 0.0
2019-Jul-13 11:26N 50°54' W 001°26'0 0.0
2019-Jul-13 10:59N 50°54' W 001°26'0 0.0
2019-Jul-13 10:29N 50°54' W 001°26'0 0.0
2019-Jul-13 09:56N 50°54' W 001°26'0 0.0
2019-Jul-13 09:26N 50°54' W 001°26'0 0.0
2019-Jul-13 08:59N 50°54' W 001°26'0 0.0
2019-Jul-13 08:29N 50°54' W 001°26'0 0.0
2019-Jul-13 07:59N 50°54' W 001°26'0 0.0
2019-Jul-13 07:29N 50°54' W 001°26'0 0.0
2019-Jul-13 06:59N 50°54' W 001°26'0 0.0
2019-Jul-13 06:29N 50°54' W 001°26'0 0.0
2019-Jul-13 05:53N 50°54' W 001°26'0 0.0
2019-Jul-13 05:28N 50°54' W 001°26'0 0.0
2019-Jul-13 05:00N 50°54' W 001°26'0 0.5
2019-Jul-13 04:30N 50°54' W 001°26'3 5.4
2019-Jul-13 04:01N 50°52' W 001°23'510.3
2019-Jul-13 03:30N 50°49' W 001°18'5 9.2
2019-Jul-13 03:00N 50°46' W 001°12'815.5
2019-Jul-13 02:30N 50°43' W 001°00'510.0
2019-Jul-13 02:00N 50°38' W 000°60'510.6
2019-Jul-13 01:30N 50°33' W 001°02'918.5
2019-Jul-13 01:00N 50°29' W 001°15'3118.0
2019-Jul-12 23:16N 50°18' W 002°01'817.4
2019-Jul-12 22:48N 50°18' W 002°14'617.2
2019-Jul-12 22:28N 50°16' W 002°22'817.1
2019-Jul-12 22:00N 50°15' W 002°35'917.8
2019-Jul-12 21:30N 50°13' W 002°48'917.9
2019-Jul-12 21:00N 50°10' W 003°01'918.1
2019-Jul-12 20:30N 50°03' W 003°11'918.4
2019-Jul-12 20:00N 49°57' W 003°21'918.6
2019-Jul-12 19:30N 49°50' W 003°31'917.8
2019-Jul-12 19:00N 49°43' W 003°39'816.5
2019-Jul-12 18:30N 49°37' W 003°48'917.1
2019-Jul-12 18:00N 49°31' W 003°57'4017.2
2019-Jul-12 15:39N 49°02' W 004°40'317.4
2019-Jul-12 15:29N 48°60' W 004°43'919.8
2019-Jul-12 15:00N 48°53' W 004°53'1019.8
2019-Jul-12 14:30N 48°45' W 005°02'1020.3
2019-Jul-12 14:00N 48°38' W 005°14'1020.4
2019-Jul-12 13:30N 48°30' W 005°24'1020.2
2019-Jul-12 13:00N 48°22' W 005°32'1020.4
2019-Jul-12 12:30N 48°13' W 005°40'1020.0
2019-Jul-12 12:00N 48°04' W 005°47'1020.2
2019-Jul-12 11:30N 47°55' W 005°55'1020.4
2019-Jul-12 11:00N 47°47' W 006°02'1020.4
2019-Jul-12 10:30N 47°38' W 006°09'1420.6
2019-Jul-12 09:50N 47°26' W 006°20'720.6
2019-Jul-12 09:30N 47°20' W 006°24'1019.5
2019-Jul-12 09:00N 47°11' W 006°32'1019.6
2019-Jul-12 08:30N 47°03' W 006°39'1019.0
2019-Jul-12 08:00N 46°55' W 006°46'1619.2
2019-Jul-12 07:10N 46°41' W 006°58'19519.9
2019-Jul-11 21:21N 43°51' W 009°14'919.7
2019-Jul-11 20:55N 43°44' W 009°20'2819.7
2019-Jul-11 19:29N 43°20' W 009°40'1019.6
2019-Jul-11 18:58N 43°10' W 009°46'1219.7
2019-Jul-11 18:21N 42°58' W 009°46'1219.4
2019-Jul-11 17:45N 42°46' W 009°47'10017.5
2019-Jul-11 12:00N 41°06' W 009°48'3625.2 010 / 251015.510.8 19.515.319.0
2019-Jul-11 10:33N 40°30' W 009°49'119.2
2019-Jul-11 10:30N 40°29' W 009°49'1019.1
2019-Jul-11 10:00N 40°19' W 009°51'1019.4
2019-Jul-11 09:30N 40°10' W 009°52'1019.2
2019-Jul-11 09:00N 40°00' W 009°52'1319.5
2019-Jul-11 08:21N 39°48' W 009°50'719.5
2019-Jul-11 08:00N 39°41' W 009°50'1119.4
2019-Jul-11 07:25N 39°29' W 009°51'819.3
2019-Jul-11 07:00N 39°22' W 009°50'1019.4
2019-Jul-11 06:30N 39°12' W 009°50'1019.3
2019-Jul-11 06:01N 39°02' W 009°50'3172.3
2019-Jul-11 06:00N 39°00' W 009°48'816.0 010 / 201012.510.8 19.017.419.0
2019-Jul-11 05:30N 38°52' W 009°51'1019.3
2019-Jul-11 05:01N 38°43' W 009°50'1019.3
2019-Jul-11 04:31N 38°33' W 009°48'918.8
2019-Jul-11 04:01N 38°24' W 009°45'1019.2
2019-Jul-11 03:31N 38°15' W 009°42'1019.3
2019-Jul-11 03:00N 38°06' W 009°39'1019.7
2019-Jul-11 02:30N 37°56' W 009°35'1019.7
2019-Jul-11 02:00N 37°46' W 009°34'1019.9
2019-Jul-11 01:30N 37°37' W 009°31'1019.7
2019-Jul-11 01:00N 37°27' W 009°28'1019.8
2019-Jul-11 00:30N 37°17' W 009°25'1019.5
2019-Jul-11 00:00N 37°08' W 009°22'1019.3
2019-Jul-10 23:29N 36°58' W 009°19'918.9
2019-Jul-10 23:00N 36°50' W 009°14'919.1
2019-Jul-10 22:31N 36°44' W 009°05'1019.7
2019-Jul-10 22:00N 36°42' W 008°53'1019.5
2019-Jul-10 21:30N 36°39' W 008°41'1019.7
2019-Jul-10 20:59N 36°36' W 008°29'919.3
2019-Jul-10 20:30N 36°33' W 008°18'1219.4
2019-Jul-10 19:52N 36°29' W 008°03'173 9.7
2019-Jul-10 02:00N 36°12' W 004°30'   270 / 231011.810.8 20.016.720.9

Dump ship's entire track history